Athens, Wisconsin
Current Conditions -  °F | °C
As of 8:35 AM on Monday 22 Dec 2014 (Local Time) from KMDZ Reporting Station
Haze Haze  
Wind Chill: -4°   Ceiling: 300
Heat Index:   Visibility: 1.5mi
Dew Point: -1°   Wind: 8mph
Humidity: 96%   Direction: 140°SE
Pressure: 29.79"   Gusts: NA
Location:  45.03°N, 90.07°W
Report Text: KMDZ 221435Z AUTO 14007KT 1 1/2SM BR OVC003 00/M01 A2979 RMK AO2 T10011006
Loading
Personal Weather Stations






























Interactive Weather Map New forecast layout! Learn more

10-Day Weather Forecast

Advertisements
Track Severe Weather on mobile